Terminal Aerodrome Forecast
Issued by NWS

Home | Current Version | Previous Version | Text Only | Print | Product List | Glossary On
Versions: 1 2 3 4 5 6 7 8 9 10 11 12 13 14
000
FTUS44 KCRP 312338
TAFLRD
TAF
KLRD 312338Z 0100/0124 13010KT P6SM VCTS SCT060CB BKN200
      TEMPO 0100/0103 VRB20G35KT 4SM TSRA BR OVC040CB
     FM010400 16006KT P6SM SCT050 BKN150
     FM010800 VRB04KT P6SM SCT150
     FM011800 09008KT P6SM FEW050 BKN100=

USA.gov is the U.S. government's official web portal to all federal, state and local government web resources and services.